createdAt,value
2022-10-07T00:01:50.922Z,10.86
2022-10-07T00:04:20.569Z,11.03
2022-10-07T00:06:50.303Z,11.03
2022-10-07T00:09:20.399Z,11.02
2022-10-07T00:11:50.123Z,11.05
2022-10-07T00:14:19.879Z,11.03
2022-10-07T00:16:49.701Z,10.97
2022-10-07T00:19:19.482Z,10.81
2022-10-07T00:21:49.535Z,10.83
2022-10-07T00:24:19.065Z,10.74
2022-10-07T00:26:48.801Z,10.85
2022-10-07T00:29:18.597Z,10.86
2022-10-07T00:31:48.353Z,10.74
2022-10-07T00:34:18.048Z,10.80
2022-10-07T00:36:49.701Z,10.77
2022-10-07T00:39:19.784Z,10.86
2022-10-07T00:41:51.759Z,10.77
2022-10-07T00:44:44.705Z,10.79
2022-10-07T00:47:32.165Z,10.70
2022-10-07T00:50:04.949Z,10.65
2022-10-07T00:52:38.142Z,10.69
2022-10-07T00:55:11.042Z,10.83
2022-10-07T00:57:42.225Z,10.64
2022-10-07T01:00:13.214Z,10.59
2022-10-07T01:02:43.437Z,10.45
2022-10-07T01:05:14.199Z,10.74
2022-10-07T01:07:48.333Z,10.87
2022-10-07T01:10:21.886Z,10.65
2022-10-07T01:13:09.373Z,10.64
2022-10-07T01:15:44.864Z,10.64
2022-10-07T01:18:26.165Z,10.70
2022-10-07T01:21:07.484Z,10.70
2022-10-07T01:23:40.269Z,10.58
2022-10-07T01:26:15.776Z,10.65
2022-10-07T01:28:56.668Z,10.65
2022-10-07T01:31:32.247Z,10.61
2022-10-07T01:34:04.433Z,10.63
2022-10-07T01:36:37.010Z,10.45
2022-10-07T01:39:12.438Z,10.32
2022-10-07T01:41:42.854Z,10.50
2022-10-07T01:44:14.646Z,10.49
2022-10-07T01:46:45.190Z,10.49
2022-10-07T01:49:15.029Z,10.56
2022-10-07T01:51:49.506Z,10.51
2022-10-07T01:54:24.803Z,10.46
2022-10-07T01:57:10.737Z,10.46
2022-10-07T01:59:50.568Z,10.44
2022-10-07T02:02:24.297Z,10.17
2022-10-07T02:05:18.739Z,10.34
2022-10-07T02:08:16.491Z,10.33
2022-10-07T02:10:51.980Z,10.34
2022-10-07T02:13:44.664Z,10.11
2022-10-07T02:16:36.859Z,10.11
2022-10-07T02:19:09.717Z,10.12
2022-10-07T02:21:40.084Z,10.19
2022-10-07T02:24:12.150Z,10.23
2022-10-07T02:26:44.197Z,10.18
2022-10-07T02:29:17.589Z,10.17
2022-10-07T02:31:50.657Z,10.26
2022-10-07T02:34:23.927Z,10.26
2022-10-07T02:36:57.718Z,10.21
2022-10-07T02:39:29.763Z,10.25
2022-10-07T02:42:11.436Z,10.05
2022-10-07T02:44:46.957Z,10.03
2022-10-07T02:47:22.422Z,10.07
2022-10-07T02:49:53.800Z,10.07
2022-10-07T02:52:25.052Z,9.88
2022-10-07T02:55:00.823Z,9.69
2022-10-07T02:57:33.985Z,9.92
2022-10-07T03:00:11.129Z,10.00
2022-10-07T03:02:46.930Z,10.00
2022-10-07T03:05:21.368Z,9.95
2022-10-07T03:07:54.522Z,9.95
2022-10-07T03:10:26.121Z,9.68
2022-10-07T03:12:56.471Z,9.68
2022-10-07T03:15:27.653Z,9.58
2022-10-07T03:17:59.026Z,9.72
2022-10-07T03:20:30.679Z,9.95
2022-10-07T03:25:27.560Z,9.79
2022-10-07T03:27:58.175Z,9.80
2022-10-07T03:30:28.948Z,9.75
2022-10-07T03:32:59.223Z,9.78
2022-10-07T03:35:30.256Z,9.77
2022-10-07T03:38:00.058Z,9.72
2022-10-07T03:40:29.888Z,9.76
2022-10-07T03:42:59.788Z,9.72
2022-10-07T03:45:32.911Z,9.68
2022-10-07T03:48:02.675Z,9.44
2022-10-07T03:50:32.488Z,9.63
2022-10-07T03:53:02.310Z,9.53
2022-10-07T03:55:32.392Z,9.66
2022-10-07T03:58:02.788Z,9.70
2022-10-07T04:00:33.503Z,9.80
2022-10-07T04:03:03.530Z,9.70
2022-10-07T04:05:33.296Z,9.75
2022-10-07T04:08:04.762Z,9.64
2022-10-07T04:10:35.096Z,9.76
2022-10-07T04:13:05.582Z,9.70
2022-10-07T04:15:36.883Z,9.70
2022-10-07T04:18:07.969Z,9.59
2022-10-07T04:20:39.550Z,9.64
2022-10-07T04:23:10.723Z,9.62
2022-10-07T04:25:45.542Z,9.35
2022-10-07T04:28:20.231Z,9.44
2022-10-07T04:30:52.108Z,9.44
2022-10-07T04:33:25.009Z,9.41
2022-10-07T04:35:56.229Z,9.48
2022-10-07T04:38:28.511Z,9.34
2022-10-07T04:41:01.475Z,9.34
2022-10-07T04:43:33.002Z,9.42
2022-10-07T04:46:14.008Z,9.41
2022-10-07T04:48:46.538Z,9.39
2022-10-07T04:51:18.324Z,9.36
2022-10-07T04:53:56.488Z,9.39
2022-10-07T04:59:17.259Z,9.19
2022-10-07T05:01:47.212Z,9.31
2022-10-07T05:04:17.049Z,9.31
2022-10-07T05:06:47.310Z,9.50
2022-10-07T05:09:17.195Z,9.26
2022-10-07T05:11:48.967Z,9.31
2022-10-07T05:14:22.089Z,9.34
2022-10-07T05:16:53.946Z,9.48
2022-10-07T05:19:25.919Z,9.39
2022-10-07T05:21:55.995Z,9.31
2022-10-07T05:24:27.013Z,9.34
2022-10-07T05:26:56.918Z,9.33
2022-10-07T05:29:26.765Z,9.27
2022-10-07T05:32:03.946Z,9.28
2022-10-07T05:34:30.659Z,9.28
2022-10-07T05:37:01.196Z,9.39
2022-10-07T05:39:31.003Z,9.29
2022-10-07T05:42:02.552Z,9.28
2022-10-07T05:44:34.006Z,9.42
2022-10-07T05:47:04.577Z,9.42
2022-10-07T05:49:35.947Z,9.32
2022-10-07T05:52:08.045Z,9.43
2022-10-07T05:54:38.187Z,9.43
2022-10-07T05:57:08.004Z,9.49
2022-10-07T05:59:37.745Z,9.46
2022-10-07T06:02:15.436Z,9.52
2022-10-07T06:04:47.315Z,9.43
2022-10-07T06:07:21.361Z,9.42
2022-10-07T06:10:07.351Z,9.43
2022-10-07T06:12:56.570Z,9.54
2022-10-07T06:15:26.458Z,9.55
2022-10-07T06:17:56.472Z,9.55
2022-10-07T06:20:26.543Z,9.70
2022-10-07T06:22:58.106Z,9.65
2022-10-07T06:25:28.495Z,9.61
2022-10-07T06:28:00.367Z,9.71
2022-10-07T06:30:30.904Z,9.71
2022-10-07T06:33:02.100Z,9.67
2022-10-07T06:35:32.274Z,9.92
2022-10-07T06:38:02.079Z,10.01
2022-10-07T06:40:32.005Z,9.83
2022-10-07T06:43:02.099Z,9.91
2022-10-07T06:45:34.791Z,9.91
2022-10-07T06:48:06.206Z,9.90
2022-10-07T06:50:36.398Z,10.19
2022-10-07T06:53:06.636Z,10.28
2022-10-07T06:55:37.725Z,10.19
2022-10-07T06:58:11.817Z,10.29
2022-10-07T07:00:41.739Z,10.14
2022-10-07T07:03:12.227Z,10.41
2022-10-07T07:05:45.316Z,10.41
2022-10-07T07:08:17.092Z,10.72
2022-10-07T07:10:47.179Z,10.81
2022-10-07T07:13:18.343Z,10.82
2022-10-07T07:15:59.704Z,10.99
2022-10-07T07:18:31.219Z,11.08
2022-10-07T07:21:06.271Z,11.24
2022-10-07T07:23:36.186Z,11.52
2022-10-07T07:26:08.194Z,11.76
2022-10-07T07:28:38.593Z,11.88
2022-10-07T07:31:11.002Z,11.83
2022-10-07T07:33:41.588Z,12.08
2022-10-07T07:36:15.942Z,12.17
2022-10-07T07:38:59.252Z,12.29
2022-10-07T07:41:34.899Z,12.33
2022-10-07T07:44:09.257Z,12.37
2022-10-07T07:46:43.040Z,12.53
2022-10-07T07:49:14.155Z,12.65
2022-10-07T07:51:45.026Z,12.32
2022-10-07T07:54:16.825Z,12.49
2022-10-07T07:56:47.655Z,12.68
2022-10-07T07:59:17.569Z,12.77
2022-10-07T08:01:47.946Z,12.60
2022-10-07T08:04:18.029Z,12.78
2022-10-07T08:06:47.765Z,12.89
2022-10-07T08:09:17.769Z,13.31
2022-10-07T08:11:48.436Z,13.15
2022-10-07T08:14:18.979Z,13.08
2022-10-07T08:16:51.568Z,13.53
2022-10-07T08:19:21.649Z,13.48
2022-10-07T08:21:52.241Z,13.45
2022-10-07T08:24:25.324Z,13.79
2022-10-07T08:26:55.779Z,13.90
2022-10-07T08:29:25.951Z,13.89
2022-10-07T08:31:55.990Z,13.75
2022-10-07T08:34:25.649Z,13.92
2022-10-07T08:36:56.153Z,13.90
2022-10-07T08:39:27.773Z,14.18
2022-10-07T08:42:00.596Z,14.18
2022-10-07T08:44:39.182Z,14.17
2022-10-07T08:47:17.747Z,14.46
2022-10-07T08:50:09.683Z,14.61
2022-10-07T08:52:54.135Z,14.58
2022-10-07T08:55:41.614Z,14.90
2022-10-07T08:58:18.451Z,14.78
2022-10-07T09:01:07.413Z,14.88
2022-10-07T09:04:11.919Z,15.12
2022-10-07T09:06:47.538Z,15.47
2022-10-07T09:09:20.640Z,16.30
2022-10-07T09:11:53.028Z,16.30
2022-10-07T09:14:40.520Z,16.19
2022-10-07T09:17:13.592Z,17.16
2022-10-07T09:19:51.031Z,17.16
2022-10-07T09:22:23.574Z,17.35
2022-10-07T09:24:56.697Z,17.48
2022-10-07T09:27:26.739Z,17.48
2022-10-07T09:29:57.154Z,17.71
2022-10-07T09:32:26.693Z,17.73
2022-10-07T09:34:56.255Z,17.50
2022-10-07T09:37:27.796Z,17.74
2022-10-07T09:40:00.603Z,17.94
2022-10-07T09:42:33.136Z,17.78
2022-10-07T09:45:05.876Z,17.51
2022-10-07T09:47:40.425Z,17.69
2022-10-07T09:50:31.716Z,17.69
2022-10-07T09:53:02.929Z,18.07
2022-10-07T09:55:37.358Z,18.36
2022-10-07T09:58:21.684Z,18.19
2022-10-07T10:00:54.364Z,18.19
2022-10-07T10:03:35.461Z,18.56
2022-10-07T10:06:09.935Z,18.47
2022-10-07T10:08:42.901Z,18.80
2022-10-07T10:11:25.724Z,19.09
2022-10-07T10:13:56.016Z,19.50
2022-10-07T10:16:36.383Z,19.58
2022-10-07T10:19:24.341Z,18.77
2022-10-07T10:21:56.180Z,18.84
2022-10-07T10:24:45.755Z,19.10
2022-10-07T10:27:30.238Z,19.06
2022-10-07T10:30:05.263Z,19.25
2022-10-07T10:32:57.254Z,19.31
2022-10-07T10:35:31.811Z,19.44
2022-10-07T10:38:21.457Z,19.79
2022-10-07T10:41:16.535Z,19.66
2022-10-07T10:44:06.902Z,19.52
2022-10-07T10:46:52.179Z,19.38
2022-10-07T10:49:30.850Z,19.60
2022-10-07T10:52:21.811Z,19.31
2022-10-07T10:55:13.561Z,19.42
2022-10-07T10:57:49.373Z,19.23
2022-10-07T11:00:21.327Z,19.34
2022-10-07T11:03:16.625Z,19.52
2022-10-07T11:05:48.089Z,19.65
2022-10-07T11:08:23.171Z,19.85
2022-10-07T11:11:01.134Z,20.03
2022-10-07T11:13:43.970Z,19.99
2022-10-07T11:16:19.456Z,19.53
2022-10-07T11:18:57.498Z,19.73
2022-10-07T11:21:33.068Z,19.52
2022-10-07T11:24:05.568Z,19.72
2022-10-07T11:26:46.891Z,19.73
2022-10-07T11:29:40.320Z,19.86
2022-10-07T11:32:15.555Z,19.72
2022-10-07T11:35:10.675Z,19.75
2022-10-07T11:37:43.205Z,19.73
2022-10-07T11:40:16.403Z,20.13
2022-10-07T11:42:49.902Z,20.01
2022-10-07T11:45:22.682Z,19.94
2022-10-07T11:48:07.379Z,20.29
2022-10-07T11:50:51.762Z,19.88
2022-10-07T11:53:25.107Z,19.97
2022-10-07T11:56:06.815Z,20.30
2022-10-07T11:58:39.563Z,20.01
2022-10-07T12:01:30.532Z,20.54
2022-10-07T12:04:19.877Z,20.54
2022-10-07T12:07:25.369Z,20.36
2022-10-07T12:09:57.585Z,20.48
2022-10-07T12:12:29.231Z,20.55
2022-10-07T12:15:03.704Z,20.69
2022-10-07T12:17:33.465Z,20.66
2022-10-07T12:20:31.690Z,20.38
2022-10-07T12:23:22.446Z,20.08
2022-10-07T12:26:25.963Z,20.38
2022-10-07T12:28:57.248Z,20.23
2022-10-07T12:31:35.626Z,20.33
2022-10-07T12:34:09.835Z,20.39
2022-10-07T12:36:41.191Z,20.45
2022-10-07T12:39:14.045Z,20.54
2022-10-07T12:41:46.614Z,20.43
2022-10-07T12:44:36.367Z,20.53
2022-10-07T12:47:18.280Z,20.82
2022-10-07T12:49:56.780Z,20.82
2022-10-07T12:52:34.959Z,20.82
2022-10-07T12:55:11.013Z,20.44
2022-10-07T12:57:41.570Z,20.59
2022-10-07T13:00:18.414Z,21.20
2022-10-07T13:02:53.895Z,21.07
2022-10-07T13:05:38.254Z,20.66
2022-10-07T13:08:12.822Z,20.40
2022-10-07T13:10:49.143Z,20.55
2022-10-07T13:13:29.109Z,20.85
2022-10-07T13:16:01.983Z,21.13
2022-10-07T13:18:43.309Z,21.07
2022-10-07T13:21:24.997Z,21.35
2022-10-07T13:23:56.784Z,20.57
2022-10-07T13:26:27.717Z,21.09
2022-10-07T13:29:00.287Z,21.12
2022-10-07T13:31:34.130Z,21.32
2022-10-07T13:34:08.005Z,21.24
2022-10-07T13:36:44.739Z,21.06
2022-10-07T13:39:22.845Z,21.17
2022-10-07T13:42:02.308Z,21.17
2022-10-07T13:44:33.488Z,21.28
2022-10-07T13:47:05.863Z,21.33
2022-10-07T13:49:38.871Z,21.00
2022-10-07T13:52:17.195Z,20.85
2022-10-07T13:54:52.344Z,20.73
2022-10-07T13:57:23.486Z,20.39
2022-10-07T13:59:53.568Z,20.17
2022-10-07T14:02:23.641Z,20.39
2022-10-07T14:05:02.040Z,20.86
2022-10-07T14:07:32.226Z,20.77
2022-10-07T14:10:06.638Z,20.77
2022-10-07T14:12:39.938Z,21.31
2022-10-07T14:15:19.537Z,21.36
2022-10-07T14:17:53.818Z,21.17
2022-10-07T14:20:32.123Z,21.04
2022-10-07T14:23:10.554Z,20.81
2022-10-07T14:25:55.017Z,20.81
2022-10-07T14:28:30.366Z,20.85
2022-10-07T14:31:29.793Z,20.94
2022-10-07T14:34:37.382Z,21.13
2022-10-07T14:37:21.672Z,21.36
2022-10-07T14:39:53.996Z,20.55
2022-10-07T14:42:30.223Z,20.74
2022-10-07T14:45:01.249Z,20.58
2022-10-07T14:47:33.553Z,20.81
2022-10-07T14:50:04.901Z,20.68
2022-10-07T14:52:44.484Z,20.68
2022-10-07T14:55:20.126Z,20.49
2022-10-07T14:57:49.876Z,20.44
2022-10-07T15:00:24.823Z,20.40
2022-10-07T15:02:54.677Z,20.51
2022-10-07T15:05:26.223Z,20.48
2022-10-07T15:07:56.000Z,20.48
2022-10-07T15:10:26.669Z,20.46
2022-10-07T15:12:57.627Z,20.90
2022-10-07T15:15:27.426Z,20.45
2022-10-07T15:17:57.156Z,20.33
2022-10-07T15:20:27.358Z,20.25
2022-10-07T15:22:57.411Z,20.28
2022-10-07T15:25:27.145Z,20.06
2022-10-07T15:27:56.880Z,19.82
2022-10-07T15:30:26.789Z,20.17
2022-10-07T15:32:57.778Z,19.99
2022-10-07T15:35:27.908Z,19.81
2022-10-07T15:37:57.666Z,19.79
2022-10-07T15:40:27.131Z,19.85
2022-10-07T15:42:58.204Z,19.61
2022-10-07T15:45:27.990Z,19.72
2022-10-07T15:48:00.475Z,19.35
2022-10-07T15:50:29.763Z,19.61
2022-10-07T15:52:59.504Z,19.61
2022-10-07T15:55:29.427Z,19.01
2022-10-07T15:57:59.138Z,19.08
2022-10-07T16:00:29.504Z,19.08
2022-10-07T16:03:01.259Z,19.37
2022-10-07T16:05:31.297Z,19.17
2022-10-07T16:08:02.687Z,19.34
2022-10-07T16:10:33.688Z,19.32
2022-10-07T16:13:03.840Z,19.10
2022-10-07T16:15:34.884Z,19.14
2022-10-07T16:18:06.533Z,18.86
2022-10-07T16:20:40.708Z,18.91
2022-10-07T16:23:10.183Z,18.75
2022-10-07T16:25:39.924Z,18.86
2022-10-07T16:28:28.279Z,18.67
2022-10-07T16:30:58.127Z,18.74
2022-10-07T16:33:27.861Z,18.74
2022-10-07T16:35:58.329Z,18.46
2022-10-07T16:38:27.818Z,18.49
2022-10-07T16:40:57.855Z,18.33
2022-10-07T16:43:27.598Z,18.35
2022-10-07T16:45:58.909Z,18.22
2022-10-07T16:48:28.602Z,18.18
2022-10-07T16:50:59.289Z,18.06
2022-10-07T16:53:29.022Z,17.77
2022-10-07T16:56:04.648Z,17.62
2022-10-07T16:58:35.229Z,17.83
2022-10-07T17:01:07.190Z,17.56
2022-10-07T17:03:38.357Z,17.66
2022-10-07T17:06:13.030Z,17.38
2022-10-07T17:08:48.040Z,17.24
2022-10-07T17:11:30.208Z,17.15
2022-10-07T17:14:02.730Z,17.09
2022-10-07T17:16:38.726Z,17.15
2022-10-07T17:19:08.733Z,16.92
2022-10-07T17:21:40.650Z,16.93
2022-10-07T17:24:13.017Z,16.93
2022-10-07T17:26:43.287Z,16.86
2022-10-07T17:29:16.356Z,16.79
2022-10-07T17:31:48.251Z,16.75
2022-10-07T17:34:19.714Z,16.81
2022-10-07T17:36:50.422Z,16.56
2022-10-07T17:39:20.601Z,16.61
2022-10-07T17:41:50.408Z,16.57
2022-10-07T17:44:21.354Z,16.45
2022-10-07T17:46:51.200Z,16.41
2022-10-07T17:49:20.775Z,16.11
2022-10-07T17:51:50.517Z,16.20
2022-10-07T17:54:20.256Z,16.13
2022-10-07T17:56:50.349Z,16.13
2022-10-07T17:59:20.097Z,16.08
2022-10-07T18:01:49.830Z,16.01
2022-10-07T18:04:24.602Z,15.94
2022-10-07T18:06:51.184Z,15.74
2022-10-07T18:09:22.721Z,15.96
2022-10-07T18:12:08.582Z,15.86
2022-10-07T18:14:55.838Z,15.78
2022-10-07T18:17:25.573Z,15.78
2022-10-07T18:19:55.603Z,15.67
2022-10-07T18:22:25.392Z,15.78
2022-10-07T18:24:56.744Z,15.68
2022-10-07T18:27:27.074Z,15.54
2022-10-07T18:29:56.883Z,15.50
2022-10-07T18:32:26.312Z,15.36
2022-10-07T18:34:56.094Z,15.36
2022-10-07T18:37:25.907Z,15.47
2022-10-07T18:39:55.662Z,15.28
2022-10-07T18:42:25.418Z,15.28
2022-10-07T18:44:55.240Z,15.44
2022-10-07T18:47:24.995Z,15.26
2022-10-07T18:49:56.396Z,15.26
2022-10-07T18:52:26.452Z,15.09
2022-10-07T18:54:56.187Z,15.10
2022-10-07T18:57:25.997Z,15.03
2022-10-07T18:59:55.741Z,15.09
2022-10-07T19:02:25.573Z,14.98
2022-10-07T19:04:56.111Z,14.87
2022-10-07T19:07:25.916Z,14.85
2022-10-07T19:09:55.664Z,14.85
2022-10-07T19:12:38.825Z,14.98
2022-10-07T19:15:09.424Z,14.79
2022-10-07T19:17:39.207Z,14.76
2022-10-07T19:20:11.176Z,14.75
2022-10-07T19:22:40.934Z,14.76
2022-10-07T19:25:28.388Z,14.78
2022-10-07T19:27:58.098Z,14.68
2022-10-07T19:30:28.218Z,14.62
2022-10-07T19:32:58.016Z,14.71
2022-10-07T19:35:28.610Z,14.80
2022-10-07T19:37:58.348Z,14.82
2022-10-07T19:40:28.026Z,14.94
2022-10-07T19:42:57.791Z,14.79
2022-10-07T19:45:27.298Z,14.65
2022-10-07T19:47:57.059Z,14.75
2022-10-07T19:50:26.794Z,14.70
2022-10-07T19:52:57.002Z,14.70
2022-10-07T19:55:29.340Z,14.57
2022-10-07T19:58:00.428Z,14.48
2022-10-07T20:00:31.655Z,14.37
2022-10-07T20:03:01.126Z,14.35
2022-10-07T20:05:31.486Z,14.34
2022-10-07T20:08:01.821Z,14.40
2022-10-07T20:10:31.585Z,14.29
2022-10-07T20:13:01.641Z,14.35
2022-10-07T20:15:31.453Z,14.30
2022-10-07T20:18:03.149Z,14.28
2022-10-07T20:20:33.962Z,14.28
2022-10-07T20:23:03.705Z,14.23
2022-10-07T20:25:33.442Z,14.23
2022-10-07T20:28:03.325Z,14.14
2022-10-07T20:30:34.290Z,14.24
2022-10-07T20:33:05.737Z,14.09
2022-10-07T20:35:35.774Z,14.09
2022-10-07T20:38:06.710Z,13.97
2022-10-07T20:40:53.991Z,13.84
2022-10-07T20:43:24.061Z,14.00
2022-10-07T20:45:57.762Z,13.87
2022-10-07T20:48:29.326Z,13.94
2022-10-07T20:51:07.995Z,14.11
2022-10-07T20:53:37.782Z,14.00
2022-10-07T20:56:09.993Z,13.91
2022-10-07T20:58:39.875Z,13.92
2022-10-07T21:01:09.994Z,13.94
2022-10-07T21:03:40.064Z,13.73
2022-10-07T21:06:11.804Z,14.02
2022-10-07T21:08:41.565Z,14.04
2022-10-07T21:11:11.343Z,13.92
2022-10-07T21:13:41.139Z,13.92
2022-10-07T21:16:11.972Z,13.84
2022-10-07T21:18:41.796Z,13.80
2022-10-07T21:21:11.605Z,13.80
2022-10-07T21:23:41.368Z,13.69
2022-10-07T21:26:11.876Z,13.89
2022-10-07T21:28:41.697Z,13.83
2022-10-07T21:31:17.433Z,13.66
2022-10-07T21:33:49.640Z,13.63
2022-10-07T21:36:22.647Z,13.76
2022-10-07T21:38:58.583Z,13.77
2022-10-07T21:41:38.452Z,13.69
2022-10-07T21:44:12.865Z,13.72
2022-10-07T21:46:44.457Z,13.72
2022-10-07T21:49:15.448Z,13.64
2022-10-07T21:51:45.547Z,13.48
2022-10-07T21:54:15.596Z,13.52
2022-10-07T21:56:46.353Z,13.48
2022-10-07T21:59:16.157Z,13.59
2022-10-07T22:01:46.277Z,13.51
2022-10-07T22:04:19.630Z,13.54
2022-10-07T22:07:07.016Z,13.60
2022-10-07T22:09:36.772Z,13.51
2022-10-07T22:12:08.837Z,13.51
2022-10-07T22:14:39.409Z,13.53
2022-10-07T22:17:09.895Z,13.42
2022-10-07T22:19:39.699Z,13.46
2022-10-07T22:22:12.995Z,13.51
2022-10-07T22:24:42.748Z,13.44
2022-10-07T22:27:12.492Z,13.43
2022-10-07T22:29:42.416Z,13.29
2022-10-07T22:32:12.212Z,13.27
2022-10-07T22:34:59.361Z,13.50
2022-10-07T22:37:29.323Z,13.71
2022-10-07T22:39:59.310Z,13.82
2022-10-07T22:42:29.049Z,13.63
2022-10-07T22:44:58.810Z,13.62
2022-10-07T22:47:29.014Z,13.64
2022-10-07T22:49:58.765Z,13.69
2022-10-07T22:52:29.170Z,13.84
2022-10-07T22:54:59.025Z,13.87
2022-10-07T22:57:28.824Z,13.92
2022-10-07T23:00:00.490Z,14.02
2022-10-07T23:02:30.656Z,13.98
2022-10-07T23:05:01.398Z,13.89
2022-10-07T23:07:31.150Z,13.98
2022-10-07T23:10:00.973Z,13.85
2022-10-07T23:12:30.779Z,13.96
2022-10-07T23:15:00.270Z,13.87
2022-10-07T23:17:31.097Z,13.93
2022-10-07T23:20:01.122Z,14.09
2022-10-07T23:22:30.846Z,13.87
2022-10-07T23:25:02.377Z,13.87
2022-10-07T23:27:32.109Z,13.92
2022-10-07T23:30:02.627Z,13.74
2022-10-07T23:32:32.443Z,13.93
2022-10-07T23:35:02.195Z,13.85
2022-10-07T23:37:31.950Z,13.84
2022-10-07T23:40:01.698Z,13.93
2022-10-07T23:42:31.444Z,13.90
2022-10-07T23:45:01.460Z,13.90
2022-10-07T23:47:31.501Z,14.05
2022-10-07T23:50:01.542Z,14.17
2022-10-07T23:52:31.489Z,14.30
2022-10-07T23:55:01.294Z,14.06
2022-10-07T23:57:31.089Z,14.46
